createdAt,value
2018-04-26T00:00:37.175Z,9.6
2018-04-26T00:01:35.879Z,9.7
2018-04-26T00:02:35.080Z,9.7
2018-04-26T00:03:34.414Z,9.7
2018-04-26T00:04:33.741Z,9.7
2018-04-26T00:05:32.555Z,9.7
2018-04-26T00:06:31.546Z,9.7
2018-04-26T00:07:30.760Z,9.7
2018-04-26T00:08:30.476Z,9.6
2018-04-26T00:09:29.292Z,9.6
2018-04-26T00:11:28.000Z,9.6
2018-04-26T00:12:26.709Z,9.5
2018-04-26T00:13:26.043Z,9.5
2018-04-26T00:14:25.262Z,9.5
2018-04-26T00:15:24.257Z,9.5
2018-04-26T00:16:23.585Z,9.5
2018-04-26T00:17:22.798Z,9.5
2018-04-26T00:18:21.721Z,9.6
2018-04-26T00:19:20.929Z,9.6
2018-04-26T00:20:20.140Z,9.6
2018-04-26T00:20:50.766Z,9.6
2018-04-26T00:22:18.380Z,9.7
2018-04-26T00:23:17.872Z,9.7
2018-04-26T00:24:16.691Z,9.7
2018-04-26T00:25:15.789Z,9.7
2018-04-26T00:26:15.013Z,9.7
2018-04-26T00:27:14.222Z,9.7
2018-04-26T00:28:13.644Z,9.7
2018-04-26T00:30:11.626Z,9.7
2018-04-26T00:31:11.062Z,9.7
2018-04-26T00:32:09.843Z,9.7
2018-04-26T00:33:09.281Z,9.7
2018-04-26T00:34:08.110Z,9.8
2018-04-26T00:35:07.447Z,9.8
2018-04-26T00:36:06.867Z,9.8
2018-04-26T00:37:05.671Z,9.8
2018-04-26T00:38:04.883Z,9.8
2018-04-26T00:39:04.094Z,9.8
2018-04-26T00:40:03.200Z,9.8
2018-04-26T00:41:02.195Z,9.8
2018-04-26T00:42:01.601Z,9.8
2018-04-26T00:43:00.813Z,9.8
2018-04-26T00:44:00.040Z,9.9
2018-04-26T00:44:59.361Z,9.9
2018-04-26T00:45:58.458Z,9.8
2018-04-26T00:46:57.341Z,9.8
2018-04-26T00:47:56.630Z,9.8
2018-04-26T00:48:55.957Z,9.8
2018-04-26T00:49:54.773Z,9.8
2018-04-26T00:50:53.983Z,9.8
2018-04-26T00:51:53.292Z,9.8
2018-04-26T00:52:52.507Z,9.8
2018-04-26T00:53:51.615Z,9.8
2018-04-26T00:55:49.815Z,9.8
2018-04-26T00:56:49.137Z,9.8
2018-04-26T00:57:47.953Z,9.7
2018-04-26T00:58:47.372Z,9.7
2018-04-26T00:59:46.364Z,9.7
2018-04-26T01:00:45.673Z,9.7
2018-04-26T01:01:15.904Z,9.7
2018-04-26T01:01:46.535Z,9.7
2018-04-26T01:02:16.742Z,9.7
2018-04-26T01:03:43.026Z,9.7
2018-04-26T01:04:42.265Z,9.6
2018-04-26T01:05:41.783Z,9.6
2018-04-26T01:06:40.602Z,9.6
2018-04-26T01:07:39.919Z,9.6
2018-04-26T01:08:39.017Z,9.6
2018-04-26T01:09:37.937Z,9.6
2018-04-26T01:10:37.365Z,9.6
2018-04-26T01:11:36.290Z,9.6
2018-04-26T01:12:35.713Z,9.6
2018-04-26T01:13:34.638Z,9.6
2018-04-26T01:14:33.964Z,9.6
2018-04-26T01:15:32.882Z,9.6
2018-04-26T01:16:32.196Z,9.6
2018-04-26T01:17:31.090Z,9.6
2018-04-26T01:18:30.294Z,9.6
2018-04-26T01:19:29.510Z,9.6
2018-04-26T01:20:28.714Z,9.6
2018-04-26T01:21:28.035Z,9.6
2018-04-26T01:22:27.246Z,9.6
2018-04-26T01:23:26.171Z,9.6
2018-04-26T01:24:25.517Z,9.6
2018-04-26T01:25:24.497Z,9.5
2018-04-26T01:26:23.813Z,9.5
2018-04-26T01:27:23.029Z,9.5
2018-04-26T01:28:22.350Z,9.5
2018-04-26T01:29:21.066Z,9.5
2018-04-26T01:30:20.179Z,9.5
2018-04-26T01:31:19.491Z,9.5
2018-04-26T01:32:18.699Z,9.5
2018-04-26T01:33:18.126Z,9.4
2018-04-26T01:34:16.732Z,9.4
2018-04-26T01:35:16.123Z,9.4
2018-04-26T01:36:15.328Z,9.4
2018-04-26T01:37:14.644Z,9.4
2018-04-26T01:38:13.353Z,9.4
2018-04-26T01:39:12.562Z,9.4
2018-04-26T01:40:11.877Z,9.4
2018-04-26T01:41:11.086Z,9.4
2018-04-26T01:41:41.497Z,9.4
2018-04-26T01:42:12.032Z,9.4
2018-04-26T01:43:09.466Z,9.4
2018-04-26T01:43:39.991Z,9.4
2018-04-26T01:45:07.891Z,9.4
2018-04-26T01:46:06.599Z,9.3
2018-04-26T01:47:06.310Z,9.4
2018-04-26T01:48:05.129Z,9.3
2018-04-26T01:49:04.451Z,9.3
2018-04-26T01:50:03.653Z,9.3
2018-04-26T01:51:02.578Z,9.4
2018-04-26T01:52:01.681Z,9.3
2018-04-26T01:53:01.128Z,9.3
2018-04-26T01:53:59.848Z,9.3
2018-04-26T01:54:59.275Z,9.3
2018-04-26T01:55:58.596Z,9.3
2018-04-26T01:56:57.411Z,9.3
2018-04-26T01:57:56.736Z,9.3
2018-04-26T01:58:56.054Z,9.3
2018-04-26T01:59:54.871Z,9.3
2018-04-26T02:00:54.081Z,9.3
2018-04-26T02:01:53.185Z,9.3
2018-04-26T02:02:52.394Z,9.3
2018-04-26T02:03:51.707Z,9.3
2018-04-26T02:05:49.796Z,9.3
2018-04-26T02:06:48.894Z,9.3
2018-04-26T02:07:48.343Z,9.3
2018-04-26T02:08:47.551Z,9.3
2018-04-26T02:09:46.479Z,9.3
2018-04-26T02:10:45.688Z,9.3
2018-04-26T02:11:45.014Z,9.3
2018-04-26T02:12:43.831Z,9.3
2018-04-26T02:13:43.153Z,9.3
2018-04-26T02:14:42.368Z,9.2
2018-04-26T02:15:41.685Z,9.2
2018-04-26T02:16:40.392Z,9.3
2018-04-26T02:17:39.831Z,9.3
2018-04-26T02:18:39.263Z,9.3
2018-04-26T02:19:37.910Z,9.3
2018-04-26T02:20:37.236Z,9.3
2018-04-26T02:21:36.553Z,9.3
2018-04-26T02:22:36.803Z,9.3
2018-04-26T02:23:34.622Z,9.3
2018-04-26T02:24:34.062Z,9.3
2018-04-26T02:25:32.883Z,9.3
2018-04-26T02:26:32.313Z,9.3
2018-04-26T02:27:31.415Z,9.3
2018-04-26T02:29:29.516Z,9.3
2018-04-26T02:30:28.827Z,9.3
2018-04-26T02:31:28.055Z,9.3
2018-04-26T02:32:26.871Z,9.3
2018-04-26T02:33:26.097Z,9.3
2018-04-26T02:34:25.551Z,9.3
2018-04-26T02:35:24.789Z,9.3
2018-04-26T02:36:23.614Z,9.3
2018-04-26T02:37:22.939Z,9.3
2018-04-26T02:38:21.865Z,9.3
2018-04-26T02:39:21.195Z,9.3
2018-04-26T02:40:20.298Z,9.3
2018-04-26T02:41:19.727Z,9.3
2018-04-26T02:42:18.446Z,9.3
2018-04-26T02:43:17.889Z,9.3
2018-04-26T02:44:16.820Z,9.3
2018-04-26T02:45:16.249Z,9.3
2018-04-26T02:47:14.568Z,9.3
2018-04-26T02:48:13.387Z,9.3
2018-04-26T02:49:12.729Z,9.3
2018-04-26T02:51:11.154Z,9.3
2018-04-26T02:52:09.978Z,9.3
2018-04-26T02:53:09.316Z,9.3
2018-04-26T02:54:08.657Z,9.3
2018-04-26T02:55:07.659Z,9.3
2018-04-26T02:56:06.872Z,9.3
2018-04-26T02:57:05.704Z,9.3
2018-04-26T02:58:04.923Z,9.3
2018-04-26T02:59:03.925Z,9.3
2018-04-26T03:00:03.164Z,9.3
2018-04-26T03:02:01.517Z,9.3
2018-04-26T03:03:00.538Z,9.3
2018-04-26T03:03:59.651Z,9.3
2018-04-26T03:04:58.982Z,9.3
2018-04-26T03:05:58.204Z,9.3
2018-04-26T03:06:57.324Z,9.3
2018-04-26T03:07:56.650Z,9.3
2018-04-26T03:08:55.591Z,9.3
2018-04-26T03:09:54.809Z,9.2
2018-04-26T03:10:54.160Z,9.2
2018-04-26T03:11:52.775Z,9.2
2018-04-26T03:12:52.456Z,9.2
2018-04-26T03:13:51.300Z,9.2
2018-04-26T03:15:49.406Z,9.2
2018-04-26T03:16:48.731Z,9.2
2018-04-26T03:17:48.051Z,9.2
2018-04-26T03:18:46.870Z,9.2
2018-04-26T03:19:46.485Z,9.2
2018-04-26T03:20:45.418Z,9.2
2018-04-26T03:21:44.533Z,9.2
2018-04-26T03:22:43.640Z,9.1
2018-04-26T03:23:42.972Z,9.1
2018-04-26T03:24:42.081Z,9.1
2018-04-26T03:25:41.296Z,9.1
2018-04-26T03:26:40.012Z,9.1
2018-04-26T03:27:39.123Z,9.1
2018-04-26T03:28:38.577Z,9.1
2018-04-26T03:29:37.803Z,9.1
2018-04-26T03:30:37.148Z,9.1
2018-04-26T03:31:35.877Z,9.1
2018-04-26T03:32:35.213Z,9.1
2018-04-26T03:33:34.313Z,9.1
2018-04-26T03:34:33.641Z,9.1
2018-04-26T03:35:32.858Z,9.1
2018-04-26T03:36:32.070Z,9.1
2018-04-26T03:37:30.774Z,9
2018-04-26T03:38:29.895Z,9
2018-04-26T03:39:29.210Z,9
2018-04-26T03:41:27.412Z,9
2018-04-26T03:42:26.847Z,9
2018-04-26T03:43:25.953Z,8.9
2018-04-26T03:44:24.853Z,8.9
2018-04-26T03:45:24.073Z,8.9
2018-04-26T03:46:23.503Z,8.8
2018-04-26T03:47:22.506Z,8.8
2018-04-26T03:48:21.214Z,8.8
2018-04-26T03:49:20.429Z,8.8
2018-04-26T03:50:19.651Z,8.8
2018-04-26T03:51:19.266Z,8.8
2018-04-26T03:52:18.281Z,8.8
2018-04-26T03:53:17.461Z,8.8
2018-04-26T03:54:16.287Z,8.8
2018-04-26T03:55:15.509Z,8.8
2018-04-26T03:56:14.830Z,8.8
2018-04-26T03:57:13.754Z,8.8
2018-04-26T03:58:13.077Z,8.8
2018-04-26T03:59:11.781Z,8.8
2018-04-26T04:00:10.994Z,8.8
2018-04-26T04:01:10.211Z,8.8
2018-04-26T04:02:09.323Z,8.8
2018-04-26T04:03:08.646Z,8.8
2018-04-26T04:04:08.076Z,8.9
2018-04-26T04:05:06.901Z,8.9
2018-04-26T04:06:06.230Z,8.9
2018-04-26T04:07:04.940Z,8.9
2018-04-26T04:08:04.257Z,9
2018-04-26T04:09:03.371Z,9
2018-04-26T04:10:02.588Z,9
2018-04-26T04:11:02.038Z,9
2018-04-26T04:12:00.649Z,9
2018-04-26T04:13:00.381Z,9.1
2018-04-26T04:13:59.090Z,9.1
2018-04-26T04:14:58.308Z,9.1
2018-04-26T04:15:28.834Z,9.1
2018-04-26T04:16:56.735Z,9.2
2018-04-26T04:17:56.067Z,9.2
2018-04-26T04:18:54.986Z,9.2
2018-04-26T04:19:54.245Z,9.2
2018-04-26T04:20:53.073Z,9.2
2018-04-26T04:22:51.388Z,9.2
2018-04-26T04:23:50.704Z,9.3
2018-04-26T04:24:49.631Z,9.3
2018-04-26T04:25:19.775Z,9.3
2018-04-26T04:25:50.540Z,9.2
2018-04-26T04:26:20.679Z,9.2
2018-04-26T04:27:47.072Z,9.2
2018-04-26T04:28:46.281Z,9.2
2018-04-26T04:29:45.609Z,9.2
2018-04-26T04:30:44.824Z,9.2
2018-04-26T04:31:43.751Z,9.2
2018-04-26T04:32:42.970Z,9.2
2018-04-26T04:33:42.295Z,9.2
2018-04-26T04:34:41.268Z,9.2
2018-04-26T04:35:40.475Z,9.2
2018-04-26T04:36:39.792Z,9.2
2018-04-26T04:37:38.500Z,9.3
2018-04-26T04:38:37.603Z,9.3
2018-04-26T04:39:36.830Z,9.3
2018-04-26T04:40:35.939Z,9.3
2018-04-26T04:41:35.264Z,9.3
2018-04-26T04:42:34.474Z,9.3
2018-04-26T04:43:33.685Z,9.3
2018-04-26T04:44:32.605Z,9.4
2018-04-26T04:45:31.816Z,9.4
2018-04-26T04:46:31.247Z,9.4
2018-04-26T04:47:30.178Z,9.4
2018-04-26T04:48:29.391Z,9.4
2018-04-26T04:49:28.711Z,9.4
2018-04-26T04:50:27.425Z,9.4
2018-04-26T04:51:26.431Z,9.4
2018-04-26T04:52:25.745Z,9.4
2018-04-26T04:53:25.072Z,9.4
2018-04-26T04:54:24.399Z,9.4
2018-04-26T04:56:22.710Z,9.4
2018-04-26T04:56:53.358Z,9.4
2018-04-26T04:57:24.000Z,9.4
2018-04-26T04:57:54.530Z,9.4
2018-04-26T04:59:19.807Z,9.4
2018-04-26T05:00:19.123Z,9.5
2018-04-26T05:01:18.051Z,9.5
2018-04-26T05:02:17.157Z,9.5
2018-04-26T05:03:17.101Z,9.5
2018-04-26T05:04:15.704Z,9.5
2018-04-26T05:05:14.920Z,9.5
2018-04-26T05:06:13.627Z,9.5
2018-04-26T05:06:44.151Z,9.5
2018-04-26T05:07:14.853Z,9.5
2018-04-26T05:07:45.449Z,9.5
2018-04-26T05:08:15.587Z,9.5
2018-04-26T05:08:46.023Z,9.5
2018-04-26T05:10:10.190Z,9.4
2018-04-26T05:11:09.621Z,9.5
2018-04-26T05:12:08.728Z,9.4
2018-04-26T05:13:07.837Z,9.4
2018-04-26T05:14:07.164Z,9.4
2018-04-26T05:15:06.091Z,9.5
2018-04-26T05:17:04.586Z,9.5
2018-04-26T05:18:03.915Z,9.5
2018-04-26T05:19:02.637Z,9.6
2018-04-26T05:20:01.746Z,9.7
2018-04-26T05:21:00.962Z,9.7
2018-04-26T05:22:00.174Z,9.7
2018-04-26T05:22:59.391Z,9.7
2018-04-26T05:23:58.819Z,9.7
2018-04-26T05:24:57.830Z,9.7
2018-04-26T05:25:56.762Z,9.8
2018-04-26T05:26:56.087Z,9.8
2018-04-26T05:27:54.912Z,9.8
2018-04-26T05:28:54.348Z,9.8
2018-04-26T05:29:53.901Z,9.9
2018-04-26T05:30:52.459Z,9.9
2018-04-26T05:31:51.889Z,9.9
2018-04-26T05:32:50.822Z,9.9
2018-04-26T05:33:50.252Z,9.9
2018-04-26T05:34:48.967Z,10
2018-04-26T05:35:48.404Z,10
2018-04-26T05:36:47.727Z,10
2018-04-26T05:37:46.655Z,10
2018-04-26T05:38:45.579Z,10
2018-04-26T05:39:44.910Z,10
2018-04-26T05:40:44.229Z,10
2018-04-26T05:41:43.445Z,10
2018-04-26T05:42:42.673Z,9.9
2018-04-26T05:43:41.573Z,9.9
2018-04-26T05:44:40.504Z,9.9
2018-04-26T05:45:39.930Z,10
2018-04-26T05:46:38.848Z,10
2018-04-26T05:47:38.273Z,10
2018-04-26T05:48:08.702Z,10
2018-04-26T05:48:39.352Z,10
2018-04-26T05:49:36.155Z,10
2018-04-26T05:50:35.770Z,10
2018-04-26T05:51:34.483Z,10
2018-04-26T05:52:33.919Z,10
2018-04-26T05:53:32.933Z,10
2018-04-26T05:54:32.039Z,10
2018-04-26T05:55:31.244Z,10
2018-04-26T05:56:30.687Z,10
2018-04-26T05:57:29.611Z,10
2018-04-26T05:58:28.926Z,10
2018-04-26T05:59:27.865Z,10
2018-04-26T06:00:26.981Z,10
2018-04-26T06:01:26.307Z,10
2018-04-26T06:02:25.522Z,10
2018-04-26T06:02:55.934Z,10
2018-04-26T06:04:23.836Z,10.1
2018-04-26T06:06:21.836Z,10.1
2018-04-26T06:07:21.051Z,10.1
2018-04-26T06:08:20.267Z,10.1
2018-04-26T06:09:19.593Z,10.1
2018-04-26T06:10:18.531Z,10.1
2018-04-26T06:11:18.223Z,10.1
2018-04-26T06:12:16.777Z,10.1
2018-04-26T06:13:16.204Z,10.1
2018-04-26T06:14:15.143Z,10.1
2018-04-26T06:15:14.468Z,10.1
2018-04-26T06:16:13.792Z,10.1
2018-04-26T06:17:12.753Z,10.1
2018-04-26T06:18:12.072Z,10.1
2018-04-26T06:19:10.890Z,10.1
2018-04-26T06:20:09.897Z,10.1
2018-04-26T06:21:09.214Z,10
2018-04-26T06:22:08.607Z,10.1
2018-04-26T06:23:07.816Z,10.1
2018-04-26T06:24:06.763Z,10.1
2018-04-26T06:25:06.323Z,10.1
2018-04-26T06:26:04.702Z,10.2
2018-04-26T06:28:03.310Z,10.2
2018-04-26T06:29:02.742Z,10.2
2018-04-26T06:30:01.679Z,10.2
2018-04-26T06:31:00.776Z,10.2
2018-04-26T06:32:00.097Z,10.3
2018-04-26T06:32:30.630Z,10.3
2018-04-26T06:33:00.951Z,10.3
2018-04-26T06:33:31.196Z,10.3
2018-04-26T06:34:01.827Z,10.3
2018-04-26T06:34:57.544Z,10.3
2018-04-26T06:35:56.472Z,10.3
2018-04-26T06:36:55.974Z,10.3
2018-04-26T06:37:54.757Z,10.3
2018-04-26T06:38:54.091Z,10.3
2018-04-26T06:39:53.106Z,10.3
2018-04-26T06:40:52.537Z,10.4
2018-04-26T06:41:51.471Z,10.4
2018-04-26T06:42:22.067Z,10.4
2018-04-26T06:42:52.137Z,10.4
2018-04-26T06:43:22.283Z,10.4
2018-04-26T06:43:52.829Z,10.4
2018-04-26T06:44:23.582Z,10.4
2018-04-26T06:45:48.472Z,10.4
2018-04-26T06:46:47.407Z,10.5
2018-04-26T06:47:46.882Z,10.5
2018-04-26T06:48:45.509Z,10.5
2018-04-26T06:49:44.940Z,10.5
2018-04-26T06:50:43.762Z,10.6
2018-04-26T06:51:43.184Z,10.5
2018-04-26T06:52:42.011Z,10.5
2018-04-26T06:53:41.619Z,10.5
2018-04-26T06:54:40.828Z,10.5
2018-04-26T06:55:39.546Z,10.5
2018-04-26T06:56:38.945Z,10.6
2018-04-26T06:57:37.770Z,10.5
2018-04-26T06:58:37.536Z,10.5
2018-04-26T06:59:36.364Z,10.5
2018-04-26T07:00:35.873Z,10.5
2018-04-26T07:01:34.914Z,10.6
2018-04-26T07:02:33.639Z,10.6
2018-04-26T07:03:32.958Z,10.6
2018-04-26T07:04:32.059Z,10.6
2018-04-26T07:05:31.280Z,10.6
2018-04-26T07:06:30.598Z,10.6
2018-04-26T07:07:29.416Z,10.7
2018-04-26T07:08:28.737Z,10.7
2018-04-26T07:09:28.068Z,10.7
2018-04-26T07:10:27.282Z,10.7
2018-04-26T07:11:26.260Z,10.7
2018-04-26T07:12:25.468Z,10.7
2018-04-26T07:13:24.472Z,10.7
2018-04-26T07:14:23.801Z,10.7
2018-04-26T07:15:23.016Z,10.7
2018-04-26T07:16:22.343Z,10.8
2018-04-26T07:17:21.159Z,10.8
2018-04-26T07:18:20.586Z,10.8
2018-04-26T07:19:19.527Z,10.7
2018-04-26T07:20:18.848Z,10.7
2018-04-26T07:21:17.664Z,10.7
2018-04-26T07:22:17.089Z,10.7
2018-04-26T07:22:47.635Z,10.7
2018-04-26T07:23:17.930Z,10.7
2018-04-26T07:23:48.455Z,10.7
2018-04-26T07:24:19.095Z,10.8
2018-04-26T07:24:49.843Z,10.8
2018-04-26T07:25:20.092Z,10.8
2018-04-26T07:25:50.633Z,10.8
2018-04-26T07:27:13.004Z,10.9
2018-04-26T07:28:11.827Z,10.9
2018-04-26T07:29:11.144Z,10.8
2018-04-26T07:30:10.590Z,10.8
2018-04-26T07:31:09.516Z,10.8
2018-04-26T07:32:08.839Z,10.8
2018-04-26T07:33:07.664Z,10.8
2018-04-26T07:34:07.095Z,10.8
2018-04-26T07:34:37.738Z,10.8
2018-04-26T07:35:08.279Z,10.9
2018-04-26T07:35:38.700Z,10.9
2018-04-26T07:36:09.232Z,11
2018-04-26T07:36:39.363Z,11
2018-04-26T07:38:03.861Z,11.1
2018-04-26T07:39:02.695Z,11.1
2018-04-26T07:40:02.140Z,11.1
2018-04-26T07:41:01.148Z,11.2
2018-04-26T07:42:00.558Z,11.3
2018-04-26T07:42:59.372Z,11.2
2018-04-26T07:43:58.595Z,11.2
2018-04-26T07:44:57.924Z,11.2
2018-04-26T07:45:57.037Z,11.3
2018-04-26T07:46:56.254Z,11.3
2018-04-26T07:47:55.580Z,11.3
2018-04-26T07:48:54.410Z,11.4
2018-04-26T07:49:53.750Z,11.4
2018-04-26T07:50:52.569Z,11.3
2018-04-26T07:51:51.893Z,11.3
2018-04-26T07:52:51.333Z,11.4
2018-04-26T07:53:50.639Z,11.5
2018-04-26T07:54:49.455Z,11.5
2018-04-26T07:55:48.678Z,11.5
2018-04-26T07:56:48.132Z,11.5
2018-04-26T07:57:47.355Z,11.5
2018-04-26T07:58:46.180Z,11.4
2018-04-26T07:59:45.522Z,11.4
2018-04-26T08:00:44.850Z,11.3
2018-04-26T08:01:43.943Z,11.3
2018-04-26T08:02:42.918Z,11.3
2018-04-26T08:03:42.350Z,11.3
2018-04-26T08:04:41.346Z,11.3
2018-04-26T08:05:12.093Z,11.3
2018-04-26T08:05:42.815Z,11.2
2018-04-26T08:06:39.531Z,11.2
2018-04-26T08:07:38.867Z,11.2
2018-04-26T08:08:38.296Z,11.2
2018-04-26T08:09:37.011Z,11.1
2018-04-26T08:10:36.227Z,11.1
2018-04-26T08:11:35.707Z,11
2018-04-26T08:12:34.508Z,11
2018-04-26T08:13:33.952Z,11
2018-04-26T08:14:33.391Z,11
2018-04-26T08:15:32.105Z,11
2018-04-26T08:16:31.424Z,11
2018-04-26T08:17:30.859Z,11
2018-04-26T08:18:29.681Z,11
2018-04-26T08:19:28.897Z,11
2018-04-26T08:20:28.013Z,11
2018-04-26T08:21:27.227Z,11
2018-04-26T08:22:26.565Z,11
2018-04-26T08:23:25.668Z,11
2018-04-26T08:25:23.889Z,11.1
2018-04-26T08:26:23.332Z,11.1
2018-04-26T08:27:22.441Z,11.1
2018-04-26T08:28:21.665Z,11.2
2018-04-26T08:29:20.876Z,11.2
2018-04-26T08:30:19.706Z,11.3
2018-04-26T08:31:19.141Z,11.3
2018-04-26T08:32:18.265Z,11.4
2018-04-26T08:34:16.640Z,11.5
2018-04-26T08:36:14.864Z,11.6
2018-04-26T08:37:14.189Z,11.5
2018-04-26T08:38:13.299Z,11.4
2018-04-26T08:39:12.521Z,11.4
2018-04-26T08:40:11.736Z,11.3
2018-04-26T08:41:11.059Z,11.3
2018-04-26T08:42:09.999Z,11.3
2018-04-26T08:43:09.119Z,11.3
2018-04-26T08:44:08.548Z,11.4
2018-04-26T08:45:07.665Z,11.4
2018-04-26T08:46:06.885Z,11.5
2018-04-26T08:47:05.815Z,11.6
2018-04-26T08:48:05.142Z,11.8
2018-04-26T08:49:04.479Z,11.9
2018-04-26T08:49:34.912Z,11.9
2018-04-26T08:50:05.554Z,12
2018-04-26T08:51:02.654Z,11.9
2018-04-26T08:52:01.870Z,12
2018-04-26T08:53:01.205Z,12
2018-04-26T08:54:00.547Z,11.9
2018-04-26T08:54:59.379Z,11.8
2018-04-26T08:55:58.704Z,11.8
2018-04-26T08:56:57.922Z,11.7
2018-04-26T08:57:57.040Z,11.8
2018-04-26T08:58:56.368Z,11.9
2018-04-26T08:59:27.006Z,11.9
2018-04-26T09:00:54.408Z,11.9
2018-04-26T09:01:53.741Z,11.8
2018-04-26T09:02:53.066Z,11.8
2018-04-26T09:03:52.398Z,11.7
2018-04-26T09:04:51.233Z,11.8
2018-04-26T09:05:50.554Z,11.7
2018-04-26T09:06:49.939Z,11.6
2018-04-26T09:07:48.888Z,11.7
2018-04-26T09:08:48.116Z,11.7
2018-04-26T09:09:46.829Z,11.7
2018-04-26T09:10:17.573Z,11.7
2018-04-26T09:10:48.005Z,11.7
2018-04-26T09:11:18.646Z,11.7
2018-04-26T09:12:44.639Z,11.6
2018-04-26T09:13:43.960Z,11.6
2018-04-26T09:14:43.301Z,11.6
2018-04-26T09:15:42.499Z,11.5
2018-04-26T09:16:41.337Z,11.5
2018-04-26T09:17:40.665Z,11.5
2018-04-26T09:18:39.656Z,11.5
2018-04-26T09:20:38.371Z,11.4
2018-04-26T09:21:37.191Z,11.4
2018-04-26T09:22:36.513Z,11.4
2018-04-26T09:23:35.737Z,11.3
2018-04-26T09:24:34.969Z,11.2
2018-04-26T09:25:34.087Z,11.1
2018-04-26T09:26:33.306Z,11.1
2018-04-26T09:27:32.529Z,11
2018-04-26T09:28:31.846Z,11
2018-04-26T09:29:31.179Z,10.9
2018-04-26T09:30:30.002Z,11
2018-04-26T09:31:29.328Z,11.1
2018-04-26T09:32:28.431Z,11.1
2018-04-26T09:33:27.759Z,11.2
2018-04-26T09:34:27.086Z,11.3
2018-04-26T09:35:25.913Z,11.3
2018-04-26T09:36:25.238Z,11.3
2018-04-26T09:37:24.560Z,11.4
2018-04-26T09:38:23.784Z,11.5
2018-04-26T09:39:23.000Z,11.5
2018-04-26T09:40:22.229Z,11.6
2018-04-26T09:41:21.444Z,11.6
2018-04-26T09:41:51.567Z,11.6
2018-04-26T09:42:22.305Z,11.7
2018-04-26T09:43:19.440Z,11.7
2018-04-26T09:44:18.656Z,11.7
2018-04-26T09:45:17.765Z,11.7
2018-04-26T09:46:17.272Z,11.6
2018-04-26T09:47:16.092Z,11.5
2018-04-26T09:48:15.520Z,11.3
2018-04-26T09:49:14.624Z,11.3
2018-04-26T09:50:13.731Z,11.3
2018-04-26T09:51:13.055Z,11.3
2018-04-26T09:52:12.282Z,11.3
2018-04-26T09:52:42.530Z,11.3
2018-04-26T09:53:13.160Z,11.3
2018-04-26T09:54:10.758Z,11.3
2018-04-26T09:55:09.971Z,11.4
2018-04-26T09:56:09.185Z,11.5
2018-04-26T09:57:08.505Z,11.6
2018-04-26T09:59:06.607Z,11.7
2018-04-26T10:00:05.822Z,11.8
2018-04-26T10:01:05.036Z,11.9
2018-04-26T10:02:04.251Z,11.9
2018-04-26T10:03:03.368Z,12
2018-04-26T10:04:02.596Z,12.2
2018-04-26T10:05:01.936Z,12.2
2018-04-26T10:06:00.767Z,12.2
2018-04-26T10:06:59.972Z,12.2
2018-04-26T10:07:59.326Z,12.1
2018-04-26T10:08:58.759Z,12.2
2018-04-26T10:09:57.582Z,12.3
2018-04-26T10:10:56.674Z,12.4
2018-04-26T10:11:56.115Z,12.3
2018-04-26T10:13:54.437Z,12.3
2018-04-26T10:14:53.772Z,12.3
2018-04-26T10:15:52.699Z,12.4
2018-04-26T10:16:52.091Z,12.5
2018-04-26T10:17:51.445Z,12.5
2018-04-26T10:18:50.158Z,12.5
2018-04-26T10:19:49.377Z,12.4
2018-04-26T10:20:48.773Z,12
2018-04-26T10:21:48.108Z,11.6
2018-04-26T10:22:47.318Z,11.5
2018-04-26T10:23:46.259Z,11.3
2018-04-26T10:24:45.474Z,11.3
2018-04-26T10:25:44.804Z,11.2
2018-04-26T10:26:45.783Z,11.1
2018-04-26T10:27:43.094Z,11
2018-04-26T10:28:42.215Z,11.1
2018-04-26T10:29:41.321Z,11.1
2018-04-26T10:30:40.760Z,11.1
2018-04-26T10:31:40.190Z,11
2018-04-26T10:32:39.009Z,11
2018-04-26T10:33:38.328Z,11.1
2018-04-26T10:34:37.440Z,11.2
2018-04-26T10:35:36.768Z,11.2
2018-04-26T10:36:36.132Z,11.3
2018-04-26T10:37:34.845Z,11.2
2018-04-26T10:38:34.172Z,11.3
2018-04-26T10:39:33.678Z,11.3
2018-04-26T10:40:33.022Z,11.4
2018-04-26T10:41:31.734Z,11.5
2018-04-26T10:42:30.952Z,11.6
2018-04-26T10:43:30.271Z,11.6
2018-04-26T10:44:29.593Z,11.6
2018-04-26T10:45:28.514Z,11.7
2018-04-26T10:46:28.027Z,11.9
2018-04-26T10:47:27.008Z,12
2018-04-26T10:48:26.234Z,12.1
2018-04-26T10:49:25.447Z,12.3
2018-04-26T10:50:24.459Z,12.3
2018-04-26T10:51:23.895Z,12.3
2018-04-26T10:52:23.230Z,12.2
2018-04-26T10:53:21.941Z,12.3
2018-04-26T10:54:21.449Z,12.4
2018-04-26T10:55:20.672Z,12.5
2018-04-26T10:56:20.001Z,12.5
2018-04-26T10:57:18.815Z,12.6
2018-04-26T10:58:18.246Z,12.8
2018-04-26T10:59:17.462Z,12.7
2018-04-26T11:00:16.683Z,12.8
2018-04-26T11:01:15.616Z,12.9
2018-04-26T11:02:14.714Z,13.2
2018-04-26T11:03:14.033Z,13.4
2018-04-26T11:04:13.254Z,13.5
2018-04-26T11:05:12.595Z,13.5
2018-04-26T11:06:11.814Z,13.5
2018-04-26T11:07:11.146Z,13.3
2018-04-26T11:08:10.370Z,13.2
2018-04-26T11:09:09.347Z,13
2018-04-26T11:10:08.532Z,13
2018-04-26T11:11:07.758Z,12.9
2018-04-26T11:12:07.180Z,12.9
2018-04-26T11:13:06.014Z,12.7
2018-04-26T11:14:05.451Z,12.2
2018-04-26T11:15:04.570Z,12.2
2018-04-26T11:16:03.783Z,11.9
2018-04-26T11:17:03.005Z,11.7
2018-04-26T11:18:02.313Z,11.5
2018-04-26T11:19:01.543Z,11.4
2018-04-26T11:21:59.324Z,11
2018-04-26T11:22:58.548Z,10.9
2018-04-26T11:23:57.757Z,10.7
2018-04-26T11:24:56.971Z,10.6
2018-04-26T11:25:55.921Z,10.4
2018-04-26T11:26:55.110Z,10.3
2018-04-26T11:27:54.439Z,10.2
2018-04-26T11:28:53.764Z,10
2018-04-26T11:29:52.717Z,10
2018-04-26T11:30:51.940Z,9.9
2018-04-26T11:31:51.239Z,9.7
2018-04-26T11:34:48.725Z,9.5
2018-04-26T11:35:47.950Z,9.4
2018-04-26T11:36:47.278Z,9.5
2018-04-26T11:37:46.390Z,9.5
2018-04-26T11:38:45.490Z,9.5
2018-04-26T11:39:44.697Z,9.7
2018-04-26T11:40:44.014Z,9.8
2018-04-26T11:41:43.412Z,9.9
2018-04-26T11:42:42.228Z,10
2018-04-26T11:43:41.549Z,10.1
2018-04-26T11:44:40.842Z,10.1
2018-04-26T11:45:39.662Z,10.1
2018-04-26T11:46:38.861Z,10.2
2018-04-26T11:47:38.032Z,10.3
2018-04-26T11:48:37.144Z,10.4
2018-04-26T11:49:36.472Z,10.3
2018-04-26T11:50:35.798Z,10.4
2018-04-26T11:51:35.133Z,10.5
2018-04-26T11:52:33.966Z,10.6
2018-04-26T11:53:33.251Z,10.7
2018-04-26T11:54:32.356Z,10.8
2018-04-26T11:55:31.583Z,11
2018-04-26T11:56:31.012Z,11.1
2018-04-26T11:57:29.729Z,11.1
2018-04-26T11:58:29.058Z,10.9
2018-04-26T11:59:28.278Z,11
2018-04-26T12:01:26.604Z,11
2018-04-26T12:02:26.205Z,11
2018-04-26T12:03:24.811Z,11.1
2018-04-26T12:04:24.023Z,11
2018-04-26T12:05:23.471Z,11
2018-04-26T12:06:22.396Z,11
2018-04-26T12:07:21.829Z,11
2018-04-26T12:08:20.757Z,11.1
2018-04-26T12:09:19.979Z,11.2
2018-04-26T12:10:19.408Z,11.3
2018-04-26T12:11:18.625Z,11.4
2018-04-26T12:12:17.818Z,11.4
2018-04-26T12:13:17.476Z,11.6
2018-04-26T12:14:15.678Z,11.9
2018-04-26T12:15:15.291Z,12.1
2018-04-26T12:15:46.032Z,12.1
2018-04-26T12:16:16.570Z,12.3
2018-04-26T12:17:13.408Z,12
2018-04-26T12:19:12.221Z,11.6
2018-04-26T12:20:10.944Z,11.9
2018-04-26T12:21:10.387Z,12
2018-04-26T12:22:09.710Z,12.2
2018-04-26T12:23:08.917Z,12.1
2018-04-26T12:24:08.201Z,12.2
2018-04-26T12:25:07.331Z,11.9
2018-04-26T12:26:06.446Z,12
2018-04-26T12:27:05.270Z,12.3
2018-04-26T12:28:04.488Z,12.5
2018-04-26T12:29:03.821Z,12.5
2018-04-26T12:30:03.032Z,12.7
2018-04-26T12:31:02.154Z,12.5
2018-04-26T12:32:01.154Z,12.4
2018-04-26T12:33:00.882Z,12.4
2018-04-26T12:34:00.099Z,12.4
2018-04-26T12:34:59.224Z,12.1
2018-04-26T12:35:58.554Z,12.2
2018-04-26T12:36:57.651Z,12.2
2018-04-26T12:37:56.868Z,12.3
2018-04-26T12:38:56.233Z,12.2
2018-04-26T12:39:55.075Z,12.4
2018-04-26T12:40:54.401Z,12.6
2018-04-26T12:41:53.835Z,12.8
2018-04-26T12:42:52.667Z,13.1
2018-04-26T12:43:51.884Z,13.3
2018-04-26T12:44:51.102Z,13.3
2018-04-26T12:45:50.317Z,13.3
2018-04-26T12:46:49.649Z,13.5
2018-04-26T12:47:48.973Z,13.5
2018-04-26T12:48:48.296Z,13.4
2018-04-26T12:49:47.397Z,13.4
2018-04-26T12:50:46.721Z,13.3
2018-04-26T12:51:45.946Z,13.3
2018-04-26T12:52:45.163Z,13.4
2018-04-26T12:53:44.295Z,13.4
2018-04-26T12:54:43.507Z,13.4
2018-04-26T12:55:14.143Z,13.4
2018-04-26T12:55:44.852Z,13.3
2018-04-26T12:56:14.980Z,13.3
2018-04-26T12:57:41.373Z,13.5
2018-04-26T12:58:40.214Z,13.5
2018-04-26T12:59:39.427Z,13.5
2018-04-26T13:00:39.139Z,13.6
2018-04-26T13:01:37.958Z,13.2
2018-04-26T13:02:37.183Z,13.5
2018-04-26T13:03:36.292Z,13.3
2018-04-26T13:04:36.118Z,13.5
2018-04-26T13:05:34.849Z,13.6
2018-04-26T13:06:05.261Z,13.6
2018-04-26T13:06:35.784Z,13.5
2018-04-26T13:07:06.527Z,13.5
2018-04-26T13:08:32.818Z,13.4
2018-04-26T13:09:02.842Z,13.4
2018-04-26T13:09:33.383Z,13.5
2018-04-26T13:10:03.910Z,13.5
2018-04-26T13:11:30.419Z,13.4
2018-04-26T13:12:29.419Z,13.4
2018-04-26T13:13:28.734Z,13.7
2018-04-26T13:14:28.230Z,13.6
2018-04-26T13:15:27.334Z,13.8
2018-04-26T13:16:26.439Z,14.1
2018-04-26T13:17:26.003Z,13.9
2018-04-26T13:18:25.160Z,14.1
2018-04-26T13:19:24.593Z,14
2018-04-26T13:20:23.708Z,13.5
2018-04-26T13:21:23.224Z,13.4
2018-04-26T13:22:22.339Z,13.3
2018-04-26T13:23:21.265Z,13.1
2018-04-26T13:24:20.888Z,13
2018-04-26T13:25:20.226Z,13
2018-04-26T13:26:18.836Z,13